sensor_id;sensor_type;location;lat;lon;timestamp;temperature;humidity
36800;DHT22;22752;51.960;5.886;2023-07-24T00:00:15;19.40;99.90
36800;DHT22;22752;51.960;5.886;2023-07-24T00:02:40;19.40;99.90
36800;DHT22;22752;51.960;5.886;2023-07-24T00:05:06;19.40;99.90
36800;DHT22;22752;51.960;5.886;2023-07-24T00:07:32;19.40;99.90
36800;DHT22;22752;51.960;5.886;2023-07-24T00:09:57;19.40;99.90
36800;DHT22;22752;51.960;5.886;2023-07-24T00:12:23;19.40;99.90
36800;DHT22;22752;51.960;5.886;2023-07-24T00:14:49;19.40;99.90
36800;DHT22;22752;51.960;5.886;2023-07-24T00:17:14;19.40;99.90
36800;DHT22;22752;51.960;5.886;2023-07-24T00:19:40;19.40;99.90
36800;DHT22;22752;51.960;5.886;2023-07-24T00:22:06;19.30;99.90
36800;DHT22;22752;51.960;5.886;2023-07-24T00:24:32;19.40;99.90
36800;DHT22;22752;51.960;5.886;2023-07-24T00:26:57;19.30;99.90
36800;DHT22;22752;51.960;5.886;2023-07-24T00:29:23;19.30;99.90
36800;DHT22;22752;51.960;5.886;2023-07-24T00:31:49;19.30;99.90
36800;DHT22;22752;51.960;5.886;2023-07-24T00:34:15;19.30;99.90
36800;DHT22;22752;51.960;5.886;2023-07-24T00:36:40;19.30;99.90
36800;DHT22;22752;51.960;5.886;2023-07-24T00:39:06;19.30;99.90
36800;DHT22;22752;51.960;5.886;2023-07-24T00:41:32;19.20;99.90
36800;DHT22;22752;51.960;5.886;2023-07-24T00:43:57;19.10;99.90
36800;DHT22;22752;51.960;5.886;2023-07-24T00:46:27;19.10;99.90
36800;DHT22;22752;51.960;5.886;2023-07-24T00:48:53;19.10;99.90
36800;DHT22;22752;51.960;5.886;2023-07-24T00:51:19;19.00;99.90
36800;DHT22;22752;51.960;5.886;2023-07-24T00:53:45;19.00;99.90
36800;DHT22;22752;51.960;5.886;2023-07-24T00:56:13;19.00;99.90
36800;DHT22;22752;51.960;5.886;2023-07-24T00:58:38;19.00;99.90
36800;DHT22;22752;51.960;5.886;2023-07-24T01:01:04;19.00;99.90
36800;DHT22;22752;51.960;5.886;2023-07-24T01:03:34;19.00;99.90
36800;DHT22;22752;51.960;5.886;2023-07-24T01:06:04;19.00;99.90
36800;DHT22;22752;51.960;5.886;2023-07-24T01:08:29;19.00;99.90
36800;DHT22;22752;51.960;5.886;2023-07-24T01:10:59;19.00;99.90
36800;DHT22;22752;51.960;5.886;2023-07-24T01:13:31;19.00;99.90
36800;DHT22;22752;51.960;5.886;2023-07-24T01:16:03;19.00;99.90
36800;DHT22;22752;51.960;5.886;2023-07-24T01:18:30;19.10;99.90
36800;DHT22;22752;51.960;5.886;2023-07-24T01:20:57;19.00;99.90
36800;DHT22;22752;51.960;5.886;2023-07-24T01:25:57;19.10;99.90
36800;DHT22;22752;51.960;5.886;2023-07-24T01:28:26;19.10;99.90
36800;DHT22;22752;51.960;5.886;2023-07-24T01:30:52;19.10;99.90
36800;DHT22;22752;51.960;5.886;2023-07-24T01:33:19;19.10;99.90
36800;DHT22;22752;51.960;5.886;2023-07-24T01:35:49;19.10;99.90
36800;DHT22;22752;51.960;5.886;2023-07-24T01:38:16;19.10;99.90
36800;DHT22;22752;51.960;5.886;2023-07-24T01:40:43;19.10;99.90
36800;DHT22;22752;51.960;5.886;2023-07-24T01:43:09;19.00;99.90
36800;DHT22;22752;51.960;5.886;2023-07-24T01:45:35;19.10;99.90
36800;DHT22;22752;51.960;5.886;2023-07-24T01:48:03;19.00;99.90
36800;DHT22;22752;51.960;5.886;2023-07-24T01:50:29;19.10;99.90
36800;DHT22;22752;51.960;5.886;2023-07-24T01:52:55;19.10;99.90
36800;DHT22;22752;51.960;5.886;2023-07-24T01:55:20;19.10;99.90
36800;DHT22;22752;51.960;5.886;2023-07-24T01:57:46;19.10;99.90
36800;DHT22;22752;51.960;5.886;2023-07-24T02:00:12;19.10;99.90
36800;DHT22;22752;51.960;5.886;2023-07-24T02:02:37;19.10;99.90
36800;DHT22;22752;51.960;5.886;2023-07-24T02:05:03;19.00;99.90
36800;DHT22;22752;51.960;5.886;2023-07-24T02:07:29;19.00;99.90
36800;DHT22;22752;51.960;5.886;2023-07-24T02:09:55;19.00;99.90
36800;DHT22;22752;51.960;5.886;2023-07-24T02:12:20;19.00;99.90
36800;DHT22;22752;51.960;5.886;2023-07-24T02:14:46;18.90;99.90
36800;DHT22;22752;51.960;5.886;2023-07-24T02:17:15;18.90;99.90
36800;DHT22;22752;51.960;5.886;2023-07-24T02:19:41;18.90;99.90
36800;DHT22;22752;51.960;5.886;2023-07-24T02:22:07;19.00;99.90
36800;DHT22;22752;51.960;5.886;2023-07-24T02:24:32;19.00;99.90
36800;DHT22;22752;51.960;5.886;2023-07-24T02:26:58;19.00;99.90
36800;DHT22;22752;51.960;5.886;2023-07-24T02:29:23;19.00;99.90
36800;DHT22;22752;51.960;5.886;2023-07-24T02:31:50;19.10;99.90
36800;DHT22;22752;51.960;5.886;2023-07-24T02:34:16;19.10;99.90
36800;DHT22;22752;51.960;5.886;2023-07-24T02:36:41;19.10;99.90
36800;DHT22;22752;51.960;5.886;2023-07-24T02:39:08;19.10;99.90
36800;DHT22;22752;51.960;5.886;2023-07-24T02:41:33;19.10;99.90
36800;DHT22;22752;51.960;5.886;2023-07-24T02:43:59;19.00;99.90
36800;DHT22;22752;51.960;5.886;2023-07-24T02:46:24;19.10;99.90
36800;DHT22;22752;51.960;5.886;2023-07-24T02:48:54;19.00;99.90
36800;DHT22;22752;51.960;5.886;2023-07-24T02:51:19;19.10;99.90
36800;DHT22;22752;51.960;5.886;2023-07-24T02:53:45;19.00;99.90
36800;DHT22;22752;51.960;5.886;2023-07-24T02:56:10;19.10;99.90
36800;DHT22;22752;51.960;5.886;2023-07-24T02:58:36;19.10;99.90
36800;DHT22;22752;51.960;5.886;2023-07-24T03:01:06;19.00;99.90
36800;DHT22;22752;51.960;5.886;2023-07-24T03:03:33;19.00;99.90
36800;DHT22;22752;51.960;5.886;2023-07-24T03:05:58;19.10;99.90
36800;DHT22;22752;51.960;5.886;2023-07-24T03:08:24;19.10;99.90
36800;DHT22;22752;51.960;5.886;2023-07-24T03:10:50;19.00;99.90
36800;DHT22;22752;51.960;5.886;2023-07-24T03:13:15;19.00;99.90
36800;DHT22;22752;51.960;5.886;2023-07-24T03:15:41;19.00;99.90
36800;DHT22;22752;51.960;5.886;2023-07-24T03:18:07;19.00;99.90
36800;DHT22;22752;51.960;5.886;2023-07-24T03:20:32;18.90;99.90
36800;DHT22;22752;51.960;5.886;2023-07-24T03:22:58;18.90;99.90
36800;DHT22;22752;51.960;5.886;2023-07-24T03:25:23;18.90;99.90
36800;DHT22;22752;51.960;5.886;2023-07-24T03:27:49;18.90;99.90
36800;DHT22;22752;51.960;5.886;2023-07-24T03:30:15;18.80;99.90
36800;DHT22;22752;51.960;5.886;2023-07-24T03:32:40;18.90;99.90
36800;DHT22;22752;51.960;5.886;2023-07-24T03:35:06;18.80;99.90
36800;DHT22;22752;51.960;5.886;2023-07-24T03:37:34;18.80;99.90
36800;DHT22;22752;51.960;5.886;2023-07-24T03:40:00;18.80;99.90
36800;DHT22;22752;51.960;5.886;2023-07-24T03:42:30;18.80;99.90
36800;DHT22;22752;51.960;5.886;2023-07-24T03:44:57;18.70;99.90
36800;DHT22;22752;51.960;5.886;2023-07-24T03:47:23;18.70;99.90
36800;DHT22;22752;51.960;5.886;2023-07-24T03:49:50;18.70;99.90
36800;DHT22;22752;51.960;5.886;2023-07-24T03:52:16;18.60;99.90
36800;DHT22;22752;51.960;5.886;2023-07-24T03:54:42;18.60;99.90
36800;DHT22;22752;51.960;5.886;2023-07-24T03:57:07;18.60;99.90
36800;DHT22;22752;51.960;5.886;2023-07-24T03:59:33;18.60;99.90
36800;DHT22;22752;51.960;5.886;2023-07-24T04:01:59;18.50;99.90
36800;DHT22;22752;51.960;5.886;2023-07-24T04:04:25;18.50;99.90
36800;DHT22;22752;51.960;5.886;2023-07-24T04:06:50;18.50;99.90
36800;DHT22;22752;51.960;5.886;2023-07-24T04:09:16;18.40;99.90
36800;DHT22;22752;51.960;5.886;2023-07-24T04:11:45;18.40;99.90
36800;DHT22;22752;51.960;5.886;2023-07-24T04:14:10;18.40;99.90
36800;DHT22;22752;51.960;5.886;2023-07-24T04:16:36;18.40;99.90
36800;DHT22;22752;51.960;5.886;2023-07-24T04:19:03;18.40;99.90
36800;DHT22;22752;51.960;5.886;2023-07-24T04:21:28;18.40;99.90
36800;DHT22;22752;51.960;5.886;2023-07-24T04:23:54;18.40;99.90
36800;DHT22;22752;51.960;5.886;2023-07-24T04:26:20;18.40;99.90
36800;DHT22;22752;51.960;5.886;2023-07-24T04:28:45;18.30;99.90
36800;DHT22;22752;51.960;5.886;2023-07-24T04:31:11;18.40;99.90
36800;DHT22;22752;51.960;5.886;2023-07-24T04:33:37;18.40;99.90
36800;DHT22;22752;51.960;5.886;2023-07-24T04:36:02;18.40;99.90
36800;DHT22;22752;51.960;5.886;2023-07-24T04:38:28;18.40;99.90
36800;DHT22;22752;51.960;5.886;2023-07-24T04:40:54;18.40;99.90
36800;DHT22;22752;51.960;5.886;2023-07-24T04:43:19;18.40;99.90
36800;DHT22;22752;51.960;5.886;2023-07-24T04:45:45;18.40;99.90
36800;DHT22;22752;51.960;5.886;2023-07-24T04:48:11;18.40;99.90
36800;DHT22;22752;51.960;5.886;2023-07-24T04:50:36;18.40;99.90
36800;DHT22;22752;51.960;5.886;2023-07-24T04:53:02;18.40;99.90
36800;DHT22;22752;51.960;5.886;2023-07-24T04:55:28;18.40;99.90
36800;DHT22;22752;51.960;5.886;2023-07-24T04:57:54;18.40;99.90
36800;DHT22;22752;51.960;5.886;2023-07-24T05:00:19;18.40;99.90
36800;DHT22;22752;51.960;5.886;2023-07-24T05:02:45;18.50;99.90
36800;DHT22;22752;51.960;5.886;2023-07-24T05:05:11;18.40;99.90
36800;DHT22;22752;51.960;5.886;2023-07-24T05:07:36;18.40;99.90
36800;DHT22;22752;51.960;5.886;2023-07-24T05:10:02;18.40;99.90
36800;DHT22;22752;51.960;5.886;2023-07-24T05:12:28;18.40;99.90
36800;DHT22;22752;51.960;5.886;2023-07-24T05:14:53;18.40;99.90
36800;DHT22;22752;51.960;5.886;2023-07-24T05:17:19;18.40;99.90
36800;DHT22;22752;51.960;5.886;2023-07-24T05:19:45;18.40;99.90
36800;DHT22;22752;51.960;5.886;2023-07-24T05:22:10;18.40;99.90
36800;DHT22;22752;51.960;5.886;2023-07-24T05:24:39;18.40;99.90
36800;DHT22;22752;51.960;5.886;2023-07-24T05:27:05;18.40;99.90
36800;DHT22;22752;51.960;5.886;2023-07-24T05:29:31;18.50;99.90
36800;DHT22;22752;51.960;5.886;2023-07-24T05:31:56;18.40;99.90
36800;DHT22;22752;51.960;5.886;2023-07-24T05:34:23;18.40;99.90
36800;DHT22;22752;51.960;5.886;2023-07-24T05:36:48;18.40;99.90
36800;DHT22;22752;51.960;5.886;2023-07-24T05:39:14;18.40;99.90
36800;DHT22;22752;51.960;5.886;2023-07-24T05:41:39;18.40;99.90
36800;DHT22;22752;51.960;5.886;2023-07-24T05:44:05;18.50;99.90
36800;DHT22;22752;51.960;5.886;2023-07-24T05:46:31;18.50;99.90
36800;DHT22;22752;51.960;5.886;2023-07-24T05:48:56;18.60;99.90
36800;DHT22;22752;51.960;5.886;2023-07-24T05:51:22;18.70;99.90
36800;DHT22;22752;51.960;5.886;2023-07-24T05:53:48;18.70;99.90
36800;DHT22;22752;51.960;5.886;2023-07-24T05:56:14;18.80;99.90
36800;DHT22;22752;51.960;5.886;2023-07-24T05:58:39;18.80;99.90
36800;DHT22;22752;51.960;5.886;2023-07-24T06:01:05;18.80;99.90
36800;DHT22;22752;51.960;5.886;2023-07-24T06:03:33;18.80;99.90
36800;DHT22;22752;51.960;5.886;2023-07-24T06:05:59;18.80;99.90
36800;DHT22;22752;51.960;5.886;2023-07-24T06:08:24;18.80;99.90
36800;DHT22;22752;51.960;5.886;2023-07-24T06:10:50;18.80;99.90
36800;DHT22;22752;51.960;5.886;2023-07-24T06:13:17;18.80;99.90
36800;DHT22;22752;51.960;5.886;2023-07-24T06:15:43;18.80;99.90
36800;DHT22;22752;51.960;5.886;2023-07-24T06:18:09;18.80;99.90
36800;DHT22;22752;51.960;5.886;2023-07-24T06:20:35;18.90;99.90
36800;DHT22;22752;51.960;5.886;2023-07-24T06:23:00;19.00;99.90
36800;DHT22;22752;51.960;5.886;2023-07-24T06:25:27;19.00;99.90
36800;DHT22;22752;51.960;5.886;2023-07-24T06:27:53;19.10;99.90
36800;DHT22;22752;51.960;5.886;2023-07-24T06:30:19;19.20;99.90
36800;DHT22;22752;51.960;5.886;2023-07-24T06:32:44;19.20;99.90
36800;DHT22;22752;51.960;5.886;2023-07-24T06:35:10;19.30;99.90
36800;DHT22;22752;51.960;5.886;2023-07-24T06:37:35;19.40;99.90
36800;DHT22;22752;51.960;5.886;2023-07-24T06:40:01;19.50;99.90
36800;DHT22;22752;51.960;5.886;2023-07-24T06:42:27;19.70;99.90
36800;DHT22;22752;51.960;5.886;2023-07-24T06:44:52;19.80;99.90
36800;DHT22;22752;51.960;5.886;2023-07-24T06:47:18;19.90;99.90
36800;DHT22;22752;51.960;5.886;2023-07-24T06:49:43;20.00;99.90
36800;DHT22;22752;51.960;5.886;2023-07-24T06:52:09;20.00;99.90
36800;DHT22;22752;51.960;5.886;2023-07-24T06:54:35;19.90;99.90
36800;DHT22;22752;51.960;5.886;2023-07-24T06:57:00;19.80;99.90
36800;DHT22;22752;51.960;5.886;2023-07-24T06:59:26;19.70;99.90
36800;DHT22;22752;51.960;5.886;2023-07-24T07:01:51;19.60;99.90
36800;DHT22;22752;51.960;5.886;2023-07-24T07:04:17;19.60;99.90
36800;DHT22;22752;51.960;5.886;2023-07-24T07:06:43;19.50;99.90
36800;DHT22;22752;51.960;5.886;2023-07-24T07:09:08;19.60;99.90
36800;DHT22;22752;51.960;5.886;2023-07-24T07:11:35;19.90;99.90
36800;DHT22;22752;51.960;5.886;2023-07-24T07:14:00;20.70;99.90
36800;DHT22;22752;51.960;5.886;2023-07-24T07:16:26;21.30;99.90
36800;DHT22;22752;51.960;5.886;2023-07-24T07:18:51;21.60;99.90
36800;DHT22;22752;51.960;5.886;2023-07-24T07:21:17;22.30;99.90
36800;DHT22;22752;51.960;5.886;2023-07-24T07:23:43;23.00;99.90
36800;DHT22;22752;51.960;5.886;2023-07-24T07:26:08;23.40;99.90
36800;DHT22;22752;51.960;5.886;2023-07-24T07:28:34;23.80;99.90
36800;DHT22;22752;51.960;5.886;2023-07-24T07:30:59;24.30;99.90
36800;DHT22;22752;51.960;5.886;2023-07-24T07:33:25;24.90;99.90
36800;DHT22;22752;51.960;5.886;2023-07-24T07:35:51;25.00;99.90
36800;DHT22;22752;51.960;5.886;2023-07-24T07:38:16;24.70;99.90
36800;DHT22;22752;51.960;5.886;2023-07-24T07:40:42;24.40;99.90
36800;DHT22;22752;51.960;5.886;2023-07-24T07:43:08;24.10;99.90
36800;DHT22;22752;51.960;5.886;2023-07-24T07:45:33;23.70;99.90
36800;DHT22;22752;51.960;5.886;2023-07-24T07:47:59;23.30;99.90
36800;DHT22;22752;51.960;5.886;2023-07-24T07:50:25;23.00;99.90
36800;DHT22;22752;51.960;5.886;2023-07-24T07:52:51;22.80;99.90
36800;DHT22;22752;51.960;5.886;2023-07-24T07:55:20;22.60;99.90
36800;DHT22;22752;51.960;5.886;2023-07-24T07:57:46;22.30;99.90
36800;DHT22;22752;51.960;5.886;2023-07-24T08:00:12;22.10;99.90
36800;DHT22;22752;51.960;5.886;2023-07-24T08:02:38;22.20;99.90
36800;DHT22;22752;51.960;5.886;2023-07-24T08:05:08;22.20;99.90
36800;DHT22;22752;51.960;5.886;2023-07-24T08:07:34;22.10;99.90
36800;DHT22;22752;51.960;5.886;2023-07-24T08:09:59;21.90;99.90
36800;DHT22;22752;51.960;5.886;2023-07-24T08:12:25;21.70;99.90
36800;DHT22;22752;51.960;5.886;2023-07-24T08:14:51;21.40;99.90
36800;DHT22;22752;51.960;5.886;2023-07-24T08:17:16;21.10;99.90
36800;DHT22;22752;51.960;5.886;2023-07-24T08:19:42;21.00;99.90
36800;DHT22;22752;51.960;5.886;2023-07-24T08:22:07;21.00;99.90
36800;DHT22;22752;51.960;5.886;2023-07-24T08:24:34;21.10;99.90
36800;DHT22;22752;51.960;5.886;2023-07-24T08:27:00;21.20;99.90
36800;DHT22;22752;51.960;5.886;2023-07-24T08:29:26;21.50;99.90
36800;DHT22;22752;51.960;5.886;2023-07-24T08:31:52;21.60;99.90
36800;DHT22;22752;51.960;5.886;2023-07-24T08:34:18;21.80;99.90
36800;DHT22;22752;51.960;5.886;2023-07-24T08:36:43;22.00;99.90
36800;DHT22;22752;51.960;5.886;2023-07-24T08:39:09;22.20;99.90
36800;DHT22;22752;51.960;5.886;2023-07-24T08:41:34;22.30;99.90
36800;DHT22;22752;51.960;5.886;2023-07-24T08:44:04;22.30;99.90
36800;DHT22;22752;51.960;5.886;2023-07-24T08:46:30;22.30;99.90
36800;DHT22;22752;51.960;5.886;2023-07-24T08:48:57;22.40;99.90
36800;DHT22;22752;51.960;5.886;2023-07-24T08:51:23;22.60;99.90
36800;DHT22;22752;51.960;5.886;2023-07-24T08:53:49;22.70;99.90
36800;DHT22;22752;51.960;5.886;2023-07-24T08:56:15;23.10;99.90
36800;DHT22;22752;51.960;5.886;2023-07-24T08:58:42;23.50;99.90
36800;DHT22;22752;51.960;5.886;2023-07-24T09:01:08;24.00;99.90
36800;DHT22;22752;51.960;5.886;2023-07-24T09:03:34;24.60;99.90
36800;DHT22;22752;51.960;5.886;2023-07-24T09:06:01;25.10;99.90
36800;DHT22;22752;51.960;5.886;2023-07-24T09:08:38;25.30;99.90
36800;DHT22;22752;51.960;5.886;2023-07-24T09:11:05;25.20;99.90
36800;DHT22;22752;51.960;5.886;2023-07-24T09:13:31;25.20;99.90
36800;DHT22;22752;51.960;5.886;2023-07-24T09:15:57;25.30;99.90
36800;DHT22;22752;51.960;5.886;2023-07-24T09:18:24;25.20;99.90
36800;DHT22;22752;51.960;5.886;2023-07-24T09:20:50;25.00;99.90
36800;DHT22;22752;51.960;5.886;2023-07-24T09:23:16;24.90;99.90
36800;DHT22;22752;51.960;5.886;2023-07-24T09:25:50;25.00;99.90
36800;DHT22;22752;51.960;5.886;2023-07-24T09:28:16;24.70;99.90
36800;DHT22;22752;51.960;5.886;2023-07-24T09:30:55;24.40;99.90
36800;DHT22;22752;51.960;5.886;2023-07-24T09:33:37;24.20;99.90
36800;DHT22;22752;51.960;5.886;2023-07-24T09:36:05;24.10;99.90
36800;DHT22;22752;51.960;5.886;2023-07-24T09:38:32;24.10;99.90
36800;DHT22;22752;51.960;5.886;2023-07-24T09:41:00;24.20;99.90
36800;DHT22;22752;51.960;5.886;2023-07-24T09:43:27;24.30;99.90
36800;DHT22;22752;51.960;5.886;2023-07-24T09:45:54;24.30;99.90
36800;DHT22;22752;51.960;5.886;2023-07-24T09:48:23;24.50;99.90
36800;DHT22;22752;51.960;5.886;2023-07-24T09:50:53;24.60;99.90
36800;DHT22;22752;51.960;5.886;2023-07-24T09:53:34;24.60;99.90
36800;DHT22;22752;51.960;5.886;2023-07-24T09:56:08;24.30;99.90
36800;DHT22;22752;51.960;5.886;2023-07-24T09:58:36;24.00;99.90
36800;DHT22;22752;51.960;5.886;2023-07-24T10:01:06;23.70;99.90
36800;DHT22;22752;51.960;5.886;2023-07-24T10:03:39;23.70;99.90
36800;DHT22;22752;51.960;5.886;2023-07-24T10:06:05;23.60;99.90
36800;DHT22;22752;51.960;5.886;2023-07-24T10:08:31;23.60;99.90
36800;DHT22;22752;51.960;5.886;2023-07-24T10:11:01;23.70;99.90
36800;DHT22;22752;51.960;5.886;2023-07-24T10:13:27;23.60;99.90
36800;DHT22;22752;51.960;5.886;2023-07-24T10:15:53;23.30;99.90
36800;DHT22;22752;51.960;5.886;2023-07-24T10:18:26;23.10;99.90
36800;DHT22;22752;51.960;5.886;2023-07-24T10:21:01;23.00;99.90
36800;DHT22;22752;51.960;5.886;2023-07-24T10:23:27;23.00;99.90
36800;DHT22;22752;51.960;5.886;2023-07-24T10:25:53;23.00;99.90
36800;DHT22;22752;51.960;5.886;2023-07-24T10:28:19;23.20;99.90
36800;DHT22;22752;51.960;5.886;2023-07-24T10:30:55;23.40;99.90
36800;DHT22;22752;51.960;5.886;2023-07-24T10:33:21;23.60;99.90
36800;DHT22;22752;51.960;5.886;2023-07-24T10:35:49;23.50;99.90
36800;DHT22;22752;51.960;5.886;2023-07-24T10:38:17;23.40;99.90
36800;DHT22;22752;51.960;5.886;2023-07-24T10:40:46;23.40;99.90
36800;DHT22;22752;51.960;5.886;2023-07-24T10:43:18;23.50;99.90
36800;DHT22;22752;51.960;5.886;2023-07-24T10:45:53;23.50;99.90
36800;DHT22;22752;51.960;5.886;2023-07-24T10:48:21;23.40;99.90
36800;DHT22;22752;51.960;5.886;2023-07-24T10:50:48;23.30;99.90
36800;DHT22;22752;51.960;5.886;2023-07-24T10:53:17;23.10;99.90
36800;DHT22;22752;51.960;5.886;2023-07-24T10:55:44;23.00;99.90
36800;DHT22;22752;51.960;5.886;2023-07-24T10:58:11;22.90;99.90
36800;DHT22;22752;51.960;5.886;2023-07-24T11:00:39;22.80;99.90
36800;DHT22;22752;51.960;5.886;2023-07-24T11:03:09;22.70;99.90
36800;DHT22;22752;51.960;5.886;2023-07-24T11:05:35;22.60;99.90
36800;DHT22;22752;51.960;5.886;2023-07-24T11:08:11;22.60;99.90
36800;DHT22;22752;51.960;5.886;2023-07-24T11:11:02;22.60;99.90
36800;DHT22;22752;51.960;5.886;2023-07-24T11:13:29;22.60;99.90
36800;DHT22;22752;51.960;5.886;2023-07-24T11:15:55;22.60;99.90
36800;DHT22;22752;51.960;5.886;2023-07-24T11:18:21;22.80;99.90
36800;DHT22;22752;51.960;5.886;2023-07-24T11:20:48;23.10;99.90
36800;DHT22;22752;51.960;5.886;2023-07-24T11:23:15;23.30;99.90
36800;DHT22;22752;51.960;5.886;2023-07-24T11:25:41;23.40;99.90
36800;DHT22;22752;51.960;5.886;2023-07-24T11:28:10;23.60;99.90
36800;DHT22;22752;51.960;5.886;2023-07-24T11:30:36;23.70;99.90
36800;DHT22;22752;51.960;5.886;2023-07-24T11:33:05;23.80;99.90
36800;DHT22;22752;51.960;5.886;2023-07-24T11:35:31;23.80;99.90
36800;DHT22;22752;51.960;5.886;2023-07-24T11:37:57;23.70;99.90
36800;DHT22;22752;51.960;5.886;2023-07-24T11:40:35;23.40;99.90
36800;DHT22;22752;51.960;5.886;2023-07-24T11:43:01;23.00;99.90
36800;DHT22;22752;51.960;5.886;2023-07-24T11:45:27;22.60;99.90
36800;DHT22;22752;51.960;5.886;2023-07-24T11:47:53;22.40;99.90
36800;DHT22;22752;51.960;5.886;2023-07-24T11:50:20;22.20;99.90
36800;DHT22;22752;51.960;5.886;2023-07-24T11:52:51;22.30;99.90
36800;DHT22;22752;51.960;5.886;2023-07-24T11:55:19;22.50;99.90
36800;DHT22;22752;51.960;5.886;2023-07-24T11:57:58;22.80;99.90
36800;DHT22;22752;51.960;5.886;2023-07-24T12:00:25;22.80;99.90
36800;DHT22;22752;51.960;5.886;2023-07-24T12:02:51;22.90;99.90
36800;DHT22;22752;51.960;5.886;2023-07-24T12:05:17;23.10;99.90
36800;DHT22;22752;51.960;5.886;2023-07-24T12:07:44;23.30;99.90
36800;DHT22;22752;51.960;5.886;2023-07-24T12:10:13;23.40;99.90
36800;DHT22;22752;51.960;5.886;2023-07-24T12:12:50;23.50;99.90
36800;DHT22;22752;51.960;5.886;2023-07-24T12:15:16;23.60;99.90
36800;DHT22;22752;51.960;5.886;2023-07-24T12:17:42;23.60;99.90
36800;DHT22;22752;51.960;5.886;2023-07-24T12:20:08;23.60;99.90
36800;DHT22;22752;51.960;5.886;2023-07-24T12:22:38;23.70;99.90
36800;DHT22;22752;51.960;5.886;2023-07-24T12:25:05;23.90;99.90
36800;DHT22;22752;51.960;5.886;2023-07-24T12:27:31;23.90;99.90
36800;DHT22;22752;51.960;5.886;2023-07-24T12:29:57;23.90;99.90
36800;DHT22;22752;51.960;5.886;2023-07-24T12:32:23;23.80;99.90
36800;DHT22;22752;51.960;5.886;2023-07-24T12:34:50;23.90;99.90
36800;DHT22;22752;51.960;5.886;2023-07-24T12:37:17;24.00;99.90
36800;DHT22;22752;51.960;5.886;2023-07-24T12:39:47;24.00;99.90
36800;DHT22;22752;51.960;5.886;2023-07-24T12:42:13;23.90;99.90
36800;DHT22;22752;51.960;5.886;2023-07-24T12:44:39;23.80;99.90
36800;DHT22;22752;51.960;5.886;2023-07-24T12:47:05;23.70;99.90
36800;DHT22;22752;51.960;5.886;2023-07-24T12:49:31;23.80;99.90
36800;DHT22;22752;51.960;5.886;2023-07-24T12:51:57;24.00;99.90
36800;DHT22;22752;51.960;5.886;2023-07-24T12:54:22;24.10;99.90
36800;DHT22;22752;51.960;5.886;2023-07-24T12:56:52;24.20;99.90
36800;DHT22;22752;51.960;5.886;2023-07-24T12:59:18;24.20;99.90
36800;DHT22;22752;51.960;5.886;2023-07-24T13:01:44;24.20;99.90
36800;DHT22;22752;51.960;5.886;2023-07-24T13:04:10;24.10;99.90
36800;DHT22;22752;51.960;5.886;2023-07-24T13:06:36;24.00;99.90
36800;DHT22;22752;51.960;5.886;2023-07-24T13:09:02;24.00;99.90
36800;DHT22;22752;51.960;5.886;2023-07-24T13:11:28;24.00;99.90
36800;DHT22;22752;51.960;5.886;2023-07-24T13:13:54;24.00;99.90
36800;DHT22;22752;51.960;5.886;2023-07-24T13:16:20;24.00;99.90
36800;DHT22;22752;51.960;5.886;2023-07-24T13:18:46;24.10;99.90
36800;DHT22;22752;51.960;5.886;2023-07-24T13:21:12;24.10;99.90
36800;DHT22;22752;51.960;5.886;2023-07-24T13:23:37;24.20;99.90
36800;DHT22;22752;51.960;5.886;2023-07-24T13:26:03;24.20;99.90
36800;DHT22;22752;51.960;5.886;2023-07-24T13:28:29;24.20;99.90
36800;DHT22;22752;51.960;5.886;2023-07-24T13:30:55;24.10;99.90
36800;DHT22;22752;51.960;5.886;2023-07-24T13:33:21;24.30;99.90
36800;DHT22;22752;51.960;5.886;2023-07-24T13:35:48;24.50;99.90
36800;DHT22;22752;51.960;5.886;2023-07-24T13:38:14;24.60;99.90
36800;DHT22;22752;51.960;5.886;2023-07-24T13:40:40;24.70;99.90
36800;DHT22;22752;51.960;5.886;2023-07-24T13:43:05;24.70;99.90
36800;DHT22;22752;51.960;5.886;2023-07-24T13:45:31;24.70;99.90
36800;DHT22;22752;51.960;5.886;2023-07-24T13:47:57;24.50;99.90
36800;DHT22;22752;51.960;5.886;2023-07-24T13:50:24;24.40;99.90
36800;DHT22;22752;51.960;5.886;2023-07-24T13:52:49;24.40;99.90
36800;DHT22;22752;51.960;5.886;2023-07-24T13:55:15;24.50;99.90
36800;DHT22;22752;51.960;5.886;2023-07-24T13:57:41;24.60;99.90
36800;DHT22;22752;51.960;5.886;2023-07-24T14:00:07;24.80;99.90
36800;DHT22;22752;51.960;5.886;2023-07-24T14:02:33;24.80;99.90
36800;DHT22;22752;51.960;5.886;2023-07-24T14:04:58;24.90;99.90
36800;DHT22;22752;51.960;5.886;2023-07-24T14:07:24;24.90;99.90
36800;DHT22;22752;51.960;5.886;2023-07-24T14:09:50;24.80;99.90
36800;DHT22;22752;51.960;5.886;2023-07-24T14:12:15;24.70;99.90
36800;DHT22;22752;51.960;5.886;2023-07-24T14:14:41;24.70;99.90
36800;DHT22;22752;51.960;5.886;2023-07-24T14:17:07;24.80;99.90
36800;DHT22;22752;51.960;5.886;2023-07-24T14:19:32;24.80;99.90
36800;DHT22;22752;51.960;5.886;2023-07-24T14:21:58;24.70;99.90
36800;DHT22;22752;51.960;5.886;2023-07-24T14:24:24;24.60;99.90
36800;DHT22;22752;51.960;5.886;2023-07-24T14:26:49;24.50;99.90
36800;DHT22;22752;51.960;5.886;2023-07-24T14:29:15;24.30;99.90
36800;DHT22;22752;51.960;5.886;2023-07-24T14:31:43;24.00;99.90
36800;DHT22;22752;51.960;5.886;2023-07-24T14:34:09;23.70;99.90
36800;DHT22;22752;51.960;5.886;2023-07-24T14:36:38;23.40;99.90
36800;DHT22;22752;51.960;5.886;2023-07-24T14:39:04;23.20;99.90
36800;DHT22;22752;51.960;5.886;2023-07-24T14:41:30;23.00;99.90
36800;DHT22;22752;51.960;5.886;2023-07-24T14:43:56;22.80;99.90
36800;DHT22;22752;51.960;5.886;2023-07-24T14:46:21;22.70;99.90
36800;DHT22;22752;51.960;5.886;2023-07-24T14:48:47;22.70;99.90
36800;DHT22;22752;51.960;5.886;2023-07-24T14:51:13;22.80;99.90
36800;DHT22;22752;51.960;5.886;2023-07-24T14:53:38;22.80;99.90
36800;DHT22;22752;51.960;5.886;2023-07-24T14:56:04;22.60;99.90
36800;DHT22;22752;51.960;5.886;2023-07-24T14:58:30;22.40;99.90
36800;DHT22;22752;51.960;5.886;2023-07-24T15:00:56;22.20;99.90
36800;DHT22;22752;51.960;5.886;2023-07-24T15:03:22;22.10;99.90
36800;DHT22;22752;51.960;5.886;2023-07-24T15:05:48;21.60;99.90
36800;DHT22;22752;51.960;5.886;2023-07-24T15:08:14;21.10;99.90
36800;DHT22;22752;51.960;5.886;2023-07-24T15:10:40;20.70;99.90
36800;DHT22;22752;51.960;5.886;2023-07-24T15:13:06;20.40;99.90
36800;DHT22;22752;51.960;5.886;2023-07-24T15:15:32;20.30;99.90
36800;DHT22;22752;51.960;5.886;2023-07-24T15:17:59;20.20;99.90
36800;DHT22;22752;51.960;5.886;2023-07-24T15:20:25;20.20;99.90
36800;DHT22;22752;51.960;5.886;2023-07-24T15:22:50;20.20;99.90
36800;DHT22;22752;51.960;5.886;2023-07-24T15:25:19;20.30;99.90
36800;DHT22;22752;51.960;5.886;2023-07-24T15:27:45;20.60;99.90